Weather observations for the past three days for
Baltimore / Martin
Imperial (Metric)
Date Time (edt) Wind (mph) Vis. (mi.) Weather Sky Cond. Temperature (ºF) Relative Humidity Wind Chill (°F) Heat Index (°F) Pressure Precipitation (in)
Air Dwpt 6 hour altimeter (in) sea level (mb) 1 hr 3 hr 6 hr
Max. Min.
03 14:54 NW 15 G 22 10.00 Partly Cloudy SCT075 60.8 23 23% 29.99 0.0
03 14:45 NW 13 G 20 10.00 Partly Cloudy SCT075 60.8 23 23% 30 0.0
03 13:47 NW 13 G 21 10.00 Partly Cloudy SCT075 59 23 25% 30.01 0.0
03 12:47 NW 15 G 23 10.00 Fair CLR 57.2 21.2 25% 30.02 0.0
03 11:45 N 12 G 26 10.00 Fair CLR 55.4 21.2 26% 30.04 0.0
03 10:45 N 18 G 22 10.00 Mostly Cloudy BKN060 51.8 23 32% 30.04 0.0
03 09:45 NW 18 G 24 10.00 Partly Cloudy SCT050 51.8 24.8 35% 30.04 0.0
03 08:50 N 20 G 28 10.00 Fair CLR 50 26.6 40% 44 30.04 0.0
03 07:45 NW 15 G 21 10.00 Fair CLR 46.4 28.4 50% 41 30.02 0.0
03 06:49 NW 10 10.00 Fair CLR 42.8 30.2 61% 38 30 0.0
03 05:45 NW 12 10.00 Fair CLR 42.8 30.2 61% 37 29.97 0.0
03 05:15 NW 9 10.00 Fair CLR 41.4 29.8 64% 36 29.97 0.0
03 04:55 NW 8 10.00 Fair CLR 43.7 30.2 59% 40 29.97 0.0
03 04:35 NW 12 10.00 Fair CLR 43.7 30.4 60% 38 29.96 0.0
03 04:15 NW 10 10.00 Fair CLR 43.2 30.7 62% 38 29.96 0.0
03 03:55 NW 10 10.00 Fair CLR 43.7 30.9 61% 39 29.95 0.0
03 03:35 NW 7 10.00 Fair CLR 42.8 31.1 63% 39 29.94 0.0
03 03:15 NW 12 10.00 Fair CLR 43.3 31.1 62% 38 29.94 0.0
03 02:55 NW 10 10.00 Fair CLR 44.4 31.1 60% 40 29.94 0.0
03 02:35 N 9 10.00 Fair CLR 45 31.1 58% 41 29.94 0.0
03 02:15 NW 10 10.00 Fair CLR 45 31.5 59% 40 29.94 0.0
03 01:55 NW 10 10.00 Fair CLR 46.4 31.3 56.3 43.3 56% 42 29.94 0.0
03 01:35 NW 9 10.00 Fair CLR 46.6 31.6 56% 43 29.94 0.0
03 01:15 NW 7 10.00 Fair CLR 45.1 31.8 60% 42 29.94 0.0
03 00:55 NW 9 10.00 Fair CLR 43.3 31.6 63% 39 29.94 0.0
03 00:35 NW 9 10.00 Fair CLR 47.3 30.9 53% 43 29.94 0.0
03 00:15 N 8 10.00 Fair CLR 49.1 30.2 48% 46 29.94 0.0
02 23:55 N 9 G 17 10.00 Fair CLR 48.9 31.1 50% 45 29.95 0.0
02 23:35 N 9 10.00 Partly Cloudy SCT095 48.9 32 52% 45 29.95 0.0
02 23:15 N 7 10.00 Overcast OVC095 51.3 31.1 46% 29.95 0.0
02 22:55 N 8 10.00 Overcast OVC095 52.2 30.4 43% 29.95 0.0
02 22:35 N 9 10.00 Mostly Cloudy BKN095 52.5 29.7 42% 29.95 0.0
02 22:15 N 8 10.00 Fair CLR 52.9 28.9 40% 29.95 0.0
02 21:45 N 5 10.00 Partly Cloudy SCT090 51.8 32 47% 29.95 0.0
02 20:45 N 6 10.00 Overcast OVC090 55.4 28.4 36% 29.93 0.0
02 19:54 N 6 10.00 Mostly Cloudy BKN090 55.4 28.4 36% 29.91 0.0
02 18:54 N 9 10.00 Partly Cloudy SCT070 57.2 26.6 31% 29.9 0.0
02 17:45 N 9 10.00 Mostly Cloudy BKN080 60.8 26.6 27% 29.9 0.0
02 15:54 N 7 10.00 Mostly Cloudy BKN070 59 26.6 29% 29.89 0.0
02 14:54 NW 8 10.00 Mostly Cloudy BKN070 62.6 28.4 27% 29.92 0.0
02 13:51 NW 7 10.00 Fair CLR 59 30.2 34% 29.95 0.0
02 12:45 NW 7 G 12 10.00 Fair CLR 59 28.4 31% 29.96 0.0
02 11:47 NE 5 10.00 Fair CLR 59 26.6 29% 29.97 0.0
02 10:47 N 5 10.00 Fair CLR 55.4 32 41% 29.97 0.0
02 09:50 N 6 10.00 Fair CLR 53.6 37.4 54% 29.97 0.0
02 08:48 N 7 10.00 Partly Cloudy SCT090 51.8 37.4 58% 29.97 0.0
02 07:46 N 9 10.00 Mostly Cloudy BKN100 50 35.6 58% 47 29.97 0.0
02 06:51 NW 9 10.00 Overcast OVC100 50 35.6 58% 47 29.96 0.0
02 05:45 NW 15 G 22 10.00 Fair CLR 51.8 35.6 54% 29.93 0.0
02 05:15 NW 14 G 22 10.00 Partly Cloudy SCT075 52.2 36.3 55% 29.93 0.0
02 04:55 NW 13 G 20 10.00 Mostly Cloudy BKN075 52.9 40.6 63% 29.93 0.0
02 04:35 NW 8 10.00 Overcast OVC065 53.6 42.1 65% 29.93 0.0
02 04:15 NW 5 10.00 Mostly Cloudy BKN065 52 42.4 70% 29.92 0.0
02 03:55 NW 7 10.00 Mostly Cloudy BKN065 53.1 41.9 66% 29.92 0.0
02 03:35 NW 8 10.00 Overcast OVC065 53.1 42.6 68% 29.92 0.0
02 03:15 NW 9 10.00 Mostly Cloudy BKN065 BKN120 54.1 42.1 64% 29.91 0.0
02 02:55 N 7 10.00 Overcast OVC065 55 41.9 61% 29.91 0.0
02 02:35 NW 8 10.00 Overcast OVC065 55.2 41.9 61% 29.92 0.0
02 02:15 N 8 10.00 Overcast OVC065 55.9 42.6 61% 29.93 0.0
02 01:55 NW 7 10.00 Overcast OVC075 56.3 44.1 60.1 56.3 64% 29.92 0.0
02 01:35 W 6 10.00 Mostly Cloudy SCT075 BKN085 56.8 43.7 62% 29.92 0.0
02 01:15 W 5 10.00 Mostly Cloudy SCT075 BKN085 BKN110 57.4 43.5 60% 29.93 0.0
02 00:55 W 7 10.00 Overcast BKN075 BKN085 OVC110 57.9 43.9 60% 29.93 0.0
02 00:35 W 5 10.00 Overcast OVC075 58.1 47.5 68% 29.93 0.0
02 00:15 W 6 10.00 Light Rain OVC075 58.5 48 68% 29.92 0.0
01 23:55 SW 8 10.00 Overcast OVC085 58.5 47.5 67% 29.91 0.0
01 23:35 SW 9 10.00 Overcast BKN085 OVC100 58.8 46.8 64% 29.91 0.0
01 23:15 SW 6 10.00 Overcast SCT085 OVC100 58.6 44.4 59% 29.91 0.0
01 22:55 S 10 10.00 Overcast OVC095 59 43 56% 29.9 0.0
01 22:35 S 10 G 18 10.00 Mostly Cloudy SCT095 BKN120 59 41.7 53% 29.91 0.0
01 22:15 S 13 10.00 Partly Cloudy SCT120 59.2 40.6 50% 29.91 0.0
01 21:46 S 12 10.00 Mostly Cloudy BKN110 59 42.8 55% 29.9 0.0
01 20:46 S 12 10.00 Partly Cloudy SCT120 60.8 41 48% 29.88 0.0
01 19:46 S 10 10.00 Partly Cloudy SCT120 60.8 42.8 52% 29.87 0.0
01 18:45 S 14 G 20 10.00 Fair CLR 62.6 41 45% 29.87 0.0
01 17:47 S 15 10.00 Fair CLR 64.4 39.2 40% 29.88 0.0
01 16:46 S 15 10.00 Fair CLR 64.4 37.4 37% 29.89 0.0
01 15:46 S 14 10.00 Fair CLR 62.6 35.6 37% 29.91 0.0
01 14:46 S 13 10.00 Fair CLR 62.6 32 32% 29.94 0.0
01 13:46 S 10 10.00 Fair CLR 60.8 33.8 36% 29.96 0.0
01 12:45 S 9 10.00 Fair CLR 60.8 35.6 39% 29.96 0.0
01 11:45 SE 9 10.00 Fair CLR 59 35.6 42% 29.99 0.0
01 10:47 SW 5 10.00 Fair CLR 57.2 32 39% 30 0.0
01 09:55 NW 6 7.00 Fair CLR 55.4 33.8 44% 30.01 0.0
01 08:55 W 6 10.00 Fair CLR 53.6 37.4 54% 30.02 0.0
01 07:54 Calm 10.00 Fair CLR 48.2 39.2 71% 30.01 0.0
01 06:49 Calm 10.00 Fair CLR 42.8 37.4 81% 30 0.0
01 05:45 Calm 10.00 Fair CLR 42.8 35.6 76% 29.99 0.0
01 05:15 NW 3 10.00 Fair CLR 43.5 35.8 74% 29.99 0.0
01 04:55 Calm 10.00 Fair CLR 43.3 35.6 74% 29.99 0.0
01 04:35 NW 3 10.00 Fair CLR 42.6 35.2 75% 29.99 0.0
01 04:15 NW 5 10.00 Fair CLR 43.7 35.4 73% 42 29.98 0.0
01 03:55 NW 5 10.00 Fair CLR 44.6 35.6 71% 43 29.98 0.0
01 03:35 NW 7 10.00 Fair CLR 44.4 35.6 71% 41 29.97 0.0
01 03:15 NW 7 10.00 Fair CLR 44.2 35.8 72% 41 29.97 0.0
01 02:55 NW 8 10.00 Fair CLR 44.4 35.8 72% 40 29.97 0.0
01 02:35 NW 8 10.00 Fair CLR 44.6 36 72% 41 29.96 0.0
01 02:15 NW 7 10.00 Fair CLR 44.2 35.8 72% 41 29.96 0.0
01 01:55 NW 5 10.00 Fair CLR 43.7 36 58.8 43.7 74% 42 29.97 0.0
01 01:35 NW 5 10.00 Fair CLR 46 36.1 68% 44 29.97 0.0
01 01:15 NW 8 10.00 Fair CLR 47.5 36.3 65% 44 29.96 0.0
01 00:55 NW 7 10.00 Fair CLR 46.8 36.5 68% 44 29.96 0.0
01 00:35 NW 8 10.00 Fair CLR 46.2 36.7 69% 43 29.96 0.0
01 00:15 NW 3 10.00 Fair CLR 48.2 36.7 65% 29.96 0.0
30 23:55 W 6 10.00 Fair CLR 49.6 36.5 61% 48 29.95 0.0
30 23:35 NW 5 10.00 Fair CLR 49.3 36.5 62% 48 29.95 0.0
30 23:15 NW 5 10.00 Fair CLR 48.6 36.7 64% 47 29.95 0.0
30 22:55 N 3 10.00 Fair CLR 50 36.7 60% 29.95 0.0
30 22:35 NW 10 10.00 Fair CLR 51.4 36.3 56% 29.94 0.0
30 22:15 NW 12 10.00 Fair CLR 52.2 36.1 55% 29.94 0.0
30 21:45 NW 15 10.00 A Few Clouds FEW060 53.6 35.6 51% 29.94 0.0
30 20:49 N 23 G 32 10.00 Partly Cloudy and Breezy SCT047 57.2 37.4 48% 29.91 0.0
30 19:46 N 14 G 22 10.00 Partly Cloudy SCT060 60.8 41 48% 29.86 0.0
30 18:46 NW 21 G 30 10.00 Partly Cloudy and Breezy SCT065 64.4 35.6 34% 29.82 0.0
30 17:47 NW 14 G 20 10.00 Mostly Cloudy BKN075 66.2 35.6 32% 29.8 0.0
30 16:46 NW 15 G 21 10.00 Mostly Cloudy BKN075 68 33.8 28% 29.78 0.0
30 15:46 NW 12 G 18 10.00 Mostly Cloudy BKN075 69.8 33.8 27% 29.77 0.0
Date Time (edt) Wind (mph) Vis. (mi.) Weather Sky Cond. Air Dwpt Max. Min. Relative Humidity Wind Chill (°F) Heat Index (°F) altimeter (in) sea level (mb) 1 hr 3 hr 6 hr
6 hour
Temperature (ºF) Pressure Precipitation (in)